createdAt,value
2022-10-17T00:00:36.444Z,8.82
2022-10-17T00:03:03.253Z,8.80
2022-10-17T00:05:29.882Z,10.38
2022-10-17T00:07:56.522Z,9.98
2022-10-17T00:10:23.196Z,9.27
2022-10-17T00:12:51.595Z,12.05
2022-10-17T00:15:20.085Z,11.55
2022-10-17T00:17:46.642Z,13.88
2022-10-17T00:20:14.252Z,9.52
2022-10-17T00:22:41.212Z,9.90
2022-10-17T00:25:08.194Z,12.55
2022-10-17T00:27:39.994Z,13.15
2022-10-17T00:30:09.688Z,11.85
2022-10-17T00:32:36.330Z,12.30
2022-10-17T00:35:03.432Z,11.27
2022-10-17T00:37:33.596Z,9.02
2022-10-17T00:40:00.657Z,11.88
2022-10-17T00:42:27.770Z,13.45
2022-10-17T00:45:03.094Z,13.65
2022-10-17T00:47:30.836Z,11.90
2022-10-17T00:49:58.397Z,12.60
2022-10-17T00:52:29.767Z,11.52
2022-10-17T00:55:00.906Z,11.48
2022-10-17T00:57:29.688Z,14.35
2022-10-17T00:59:57.676Z,10.90
2022-10-17T01:02:25.298Z,11.93
2022-10-17T01:04:55.656Z,12.02
2022-10-17T01:07:23.000Z,9.85
2022-10-17T01:09:50.216Z,14.30
2022-10-17T01:12:59.601Z,9.85
2022-10-17T01:16:01.663Z,10.90
2022-10-17T01:18:49.628Z,16.15
2022-10-17T01:21:38.203Z,10.70
2022-10-17T01:24:36.981Z,14.48
2022-10-17T01:27:36.469Z,10.60
2022-10-17T01:30:44.578Z,12.50
2022-10-17T01:33:21.969Z,14.32
2022-10-17T01:35:54.485Z,9.27
2022-10-17T01:38:35.026Z,9.18
2022-10-17T01:41:20.370Z,12.80
2022-10-17T01:43:55.589Z,10.70
2022-10-17T01:46:28.838Z,11.57
2022-10-17T01:48:57.942Z,15.15
2022-10-17T01:51:33.186Z,11.90
2022-10-17T01:54:10.005Z,12.45
2022-10-17T01:56:38.639Z,10.82
2022-10-17T01:59:14.881Z,11.75
2022-10-17T02:01:43.698Z,10.95
2022-10-17T02:04:11.613Z,15.77
2022-10-17T02:06:38.682Z,11.38
2022-10-17T02:09:20.208Z,18.05
2022-10-17T02:12:12.413Z,11.45
2022-10-17T02:14:50.454Z,10.20
2022-10-17T02:17:26.287Z,10.15
2022-10-17T02:20:15.097Z,11.20
2022-10-17T02:22:53.952Z,9.88
2022-10-17T02:25:38.756Z,10.15
2022-10-17T02:28:30.265Z,10.80
2022-10-17T02:31:08.883Z,10.00
2022-10-17T02:33:41.648Z,9.60
2022-10-17T02:36:17.153Z,9.05
2022-10-17T02:38:45.338Z,9.88
2022-10-17T02:41:16.586Z,15.57
2022-10-17T02:43:45.721Z,11.02
2022-10-17T02:46:20.782Z,10.45
2022-10-17T02:49:18.495Z,11.83
2022-10-17T02:51:56.969Z,13.10
2022-10-17T02:54:34.322Z,11.90
2022-10-17T02:57:07.258Z,12.40
2022-10-17T02:59:36.963Z,12.20
2022-10-17T03:02:05.276Z,16.67
2022-10-17T03:04:32.246Z,14.25
2022-10-17T03:06:58.865Z,12.18
2022-10-17T03:09:25.496Z,16.67
2022-10-17T03:11:52.292Z,15.52
2022-10-17T03:14:19.113Z,15.55
2022-10-17T03:16:46.396Z,17.13
2022-10-17T03:19:14.672Z,18.73
2022-10-17T03:21:41.544Z,14.38
2022-10-17T03:24:08.157Z,18.80
2022-10-17T03:26:34.903Z,14.73
2022-10-17T03:29:02.129Z,16.20
2022-10-17T03:31:29.935Z,16.63
2022-10-17T03:33:57.360Z,14.07
2022-10-17T03:36:24.065Z,18.10
2022-10-17T03:38:54.705Z,15.48
2022-10-17T03:41:22.076Z,16.83
2022-10-17T03:43:48.688Z,17.23
2022-10-17T03:46:15.508Z,19.58
2022-10-17T03:48:43.031Z,18.33
2022-10-17T03:51:09.890Z,19.35
2022-10-17T03:53:44.702Z,17.50
2022-10-17T03:56:17.454Z,18.15
2022-10-17T03:58:46.612Z,18.00
2022-10-17T04:01:16.195Z,19.80
2022-10-17T04:03:43.548Z,19.58
2022-10-17T04:06:12.563Z,19.88
2022-10-17T04:08:42.679Z,22.15
2022-10-17T04:11:18.978Z,18.63
2022-10-17T04:13:47.300Z,18.25
2022-10-17T04:16:16.669Z,18.35
2022-10-17T04:18:58.106Z,20.63
2022-10-17T04:21:28.187Z,21.63
2022-10-17T04:23:57.124Z,20.70
2022-10-17T04:26:42.317Z,21.80
2022-10-17T04:29:08.956Z,25.17
2022-10-17T04:31:35.837Z,24.38
2022-10-17T04:34:14.478Z,25.65
2022-10-17T04:36:41.237Z,24.42
2022-10-17T04:39:08.511Z,24.00
2022-10-17T04:41:35.957Z,23.42
2022-10-17T04:44:02.721Z,23.27
2022-10-17T04:46:33.912Z,24.60
2022-10-17T04:49:00.607Z,26.00
2022-10-17T04:51:27.922Z,26.45
2022-10-17T04:54:23.788Z,25.42
2022-10-17T04:56:57.525Z,27.33
2022-10-17T04:59:25.674Z,27.08
2022-10-17T05:02:02.770Z,26.02
2022-10-17T05:04:30.146Z,27.35
2022-10-17T05:06:58.022Z,26.42
2022-10-17T05:09:42.408Z,29.95
2022-10-17T05:12:10.418Z,27.88
2022-10-17T05:14:39.625Z,27.10
2022-10-17T05:17:06.364Z,28.27
2022-10-17T05:19:33.017Z,29.63
2022-10-17T05:21:59.872Z,25.40
2022-10-17T05:24:26.450Z,27.70
2022-10-17T05:26:53.381Z,30.25
2022-10-17T05:29:20.081Z,28.05
2022-10-17T05:31:52.003Z,27.20
2022-10-17T05:34:19.303Z,31.58
2022-10-17T05:36:46.114Z,25.38
2022-10-17T05:39:19.363Z,29.75
2022-10-17T05:41:47.076Z,28.98
2022-10-17T05:44:13.813Z,30.13
2022-10-17T05:46:45.018Z,27.75
2022-10-17T05:49:19.629Z,29.20
2022-10-17T05:51:58.920Z,23.55
2022-10-17T05:54:26.085Z,22.30
2022-10-17T05:56:53.739Z,20.48
2022-10-17T05:59:25.197Z,20.33
2022-10-17T06:01:57.456Z,22.65
2022-10-17T06:04:24.042Z,16.65
2022-10-17T06:06:51.153Z,18.05
2022-10-17T06:09:18.013Z,16.58
2022-10-17T06:11:47.720Z,14.98
2022-10-17T06:14:15.014Z,13.82
2022-10-17T06:16:43.376Z,17.98
2022-10-17T06:19:11.546Z,15.35
2022-10-17T06:21:38.917Z,13.45
2022-10-17T06:24:14.167Z,11.85
2022-10-17T06:26:42.291Z,12.23
2022-10-17T06:29:10.777Z,11.63
2022-10-17T06:31:43.627Z,12.07
2022-10-17T06:34:10.486Z,9.43
2022-10-17T06:36:38.575Z,12.82
2022-10-17T06:39:05.876Z,12.05
2022-10-17T06:41:44.479Z,10.77
2022-10-17T06:44:11.662Z,10.73
2022-10-17T06:46:54.841Z,11.25
2022-10-17T06:49:22.301Z,10.20
2022-10-17T06:51:58.958Z,12.35
2022-10-17T06:54:34.060Z,9.50
2022-10-17T06:57:27.888Z,10.45
2022-10-17T07:00:03.097Z,14.45
2022-10-17T07:02:43.477Z,13.88
2022-10-17T07:05:10.132Z,11.70
2022-10-17T07:07:40.062Z,12.35
2022-10-17T07:10:09.793Z,8.32
2022-10-17T07:12:37.136Z,9.23
2022-10-17T07:15:05.340Z,9.40
2022-10-17T07:17:32.093Z,11.13
2022-10-17T07:19:59.114Z,10.25
2022-10-17T07:22:26.103Z,10.88
2022-10-17T07:24:56.467Z,10.00
2022-10-17T07:27:30.249Z,11.32
2022-10-17T07:29:57.834Z,10.82
2022-10-17T07:32:34.760Z,10.02
2022-10-17T07:35:02.080Z,12.40
2022-10-17T07:37:29.766Z,10.35
2022-10-17T07:39:56.801Z,12.20
2022-10-17T07:42:23.792Z,12.73
2022-10-17T07:44:51.078Z,10.55
2022-10-17T07:47:18.033Z,10.40
2022-10-17T07:49:46.613Z,9.02
2022-10-17T07:52:14.161Z,9.45
2022-10-17T07:54:41.089Z,8.73
2022-10-17T07:57:08.321Z,10.45
2022-10-17T07:59:36.725Z,8.63
2022-10-17T08:02:04.027Z,9.60
2022-10-17T08:04:30.929Z,8.25
2022-10-17T08:07:11.326Z,9.82
2022-10-17T08:09:44.245Z,8.38
2022-10-17T08:12:11.405Z,6.95
2022-10-17T08:14:39.173Z,10.65
2022-10-17T08:17:05.847Z,8.05
2022-10-17T08:19:32.878Z,8.48
2022-10-17T08:21:59.450Z,7.20
2022-10-17T08:24:26.078Z,8.18
2022-10-17T08:26:53.358Z,8.00
2022-10-17T08:29:20.288Z,7.72
2022-10-17T08:31:48.306Z,9.60
2022-10-17T08:34:16.578Z,9.48
2022-10-17T08:36:43.189Z,13.02
2022-10-17T08:39:09.777Z,10.45
2022-10-17T08:41:49.594Z,9.70
2022-10-17T08:44:34.495Z,9.35
2022-10-17T08:47:05.265Z,7.05
2022-10-17T08:49:52.423Z,11.63
2022-10-17T08:52:26.475Z,9.88
2022-10-17T08:54:53.113Z,8.30
2022-10-17T08:57:19.769Z,10.93
2022-10-17T08:59:51.967Z,10.18
2022-10-17T09:03:03.496Z,10.85
2022-10-17T09:05:42.695Z,9.50
2022-10-17T09:08:35.709Z,10.82
2022-10-17T09:11:20.034Z,9.15
2022-10-17T09:14:23.198Z,10.95
2022-10-17T09:17:15.013Z,11.80
2022-10-17T09:20:05.753Z,8.90
2022-10-17T09:22:47.082Z,13.32
2022-10-17T09:25:17.322Z,9.30
2022-10-17T09:28:24.554Z,12.93
2022-10-17T09:31:01.484Z,10.35
2022-10-17T09:33:54.563Z,10.25
2022-10-17T09:36:29.565Z,7.53
2022-10-17T09:39:05.623Z,10.07
2022-10-17T09:41:45.556Z,7.70
2022-10-17T09:44:20.028Z,10.20
2022-10-17T09:47:18.869Z,7.35
2022-10-17T09:49:47.778Z,10.55
2022-10-17T09:52:22.438Z,10.63
2022-10-17T09:54:56.085Z,9.63
2022-10-17T09:57:23.038Z,11.38
2022-10-17T10:00:01.981Z,9.85
2022-10-17T10:02:31.269Z,11.63
2022-10-17T10:05:16.052Z,16.73
2022-10-17T10:07:45.874Z,11.88
2022-10-17T10:10:28.168Z,10.02
2022-10-17T10:13:16.064Z,8.50
2022-10-17T10:15:48.129Z,9.60
2022-10-17T10:18:36.056Z,9.98
2022-10-17T10:21:06.708Z,7.25
2022-10-17T10:23:34.293Z,10.38
2022-10-17T10:26:20.936Z,8.63
2022-10-17T10:31:32.273Z,13.75
2022-10-17T10:34:01.945Z,8.70
2022-10-17T10:36:48.841Z,9.05
2022-10-17T10:41:54.733Z,8.85
2022-10-17T10:44:26.610Z,8.68
2022-10-17T10:47:07.665Z,8.63
2022-10-17T10:49:34.368Z,8.73
2022-10-17T10:52:07.353Z,8.05
2022-10-17T10:54:42.100Z,9.48
2022-10-17T10:57:13.165Z,9.13
2022-10-17T10:59:48.202Z,8.98
2022-10-17T11:02:18.927Z,9.75
2022-10-17T11:05:03.881Z,9.73
2022-10-17T11:07:53.316Z,7.75
2022-10-17T11:10:32.190Z,9.00
2022-10-17T11:13:06.613Z,10.45
2022-10-17T11:15:55.051Z,7.55
2022-10-17T11:18:38.280Z,9.20
2022-10-17T11:21:18.991Z,8.05
2022-10-17T11:24:00.027Z,9.43
2022-10-17T11:26:33.568Z,7.15
2022-10-17T11:29:03.998Z,8.38
2022-10-17T11:31:41.683Z,10.50
2022-10-17T11:34:27.326Z,8.80
2022-10-17T11:37:05.673Z,9.60
2022-10-17T11:39:55.026Z,9.85
2022-10-17T11:42:35.121Z,7.75
2022-10-17T11:45:09.282Z,8.18
2022-10-17T11:47:51.627Z,12.60
2022-10-17T11:53:25.679Z,13.05
2022-10-17T11:55:55.146Z,8.80
2022-10-17T11:58:47.091Z,15.23
2022-10-17T12:01:41.200Z,10.75
2022-10-17T12:04:14.117Z,7.90
2022-10-17T12:07:00.084Z,8.65
2022-10-17T12:09:38.791Z,9.53
2022-10-17T12:12:05.692Z,8.55
2022-10-17T12:14:58.520Z,7.15
2022-10-17T12:17:38.823Z,8.27
2022-10-17T12:20:21.224Z,6.68
2022-10-17T12:22:52.806Z,7.18
2022-10-17T12:25:29.767Z,12.50
2022-10-17T12:28:13.191Z,10.13
2022-10-17T12:30:51.778Z,7.28
2022-10-17T12:33:24.887Z,9.48
2022-10-17T12:36:47.657Z,7.55
2022-10-17T12:39:18.423Z,14.98
2022-10-17T12:41:53.922Z,9.95
2022-10-17T12:44:21.722Z,10.32
2022-10-17T12:47:09.608Z,12.68
2022-10-17T12:49:44.590Z,9.40
2022-10-17T12:52:29.928Z,8.27
2022-10-17T12:55:12.645Z,9.05
2022-10-17T12:58:10.861Z,10.23
2022-10-17T13:00:59.582Z,9.80
2022-10-17T13:03:40.594Z,18.17
2022-10-17T13:06:14.096Z,20.05
2022-10-17T13:08:53.654Z,22.30
2022-10-17T13:11:25.480Z,10.88
2022-10-17T13:13:58.989Z,19.10
2022-10-17T13:16:34.648Z,14.90
2022-10-17T13:19:17.086Z,25.88
2022-10-17T13:21:56.235Z,14.95
2022-10-17T13:24:51.864Z,18.52
2022-10-17T13:27:30.794Z,17.02
2022-10-17T13:29:59.661Z,17.38
2022-10-17T13:32:38.161Z,10.55
2022-10-17T13:35:11.250Z,13.65
2022-10-17T13:37:41.052Z,11.35
2022-10-17T13:40:44.685Z,12.20
2022-10-17T13:43:24.077Z,10.02
2022-10-17T13:45:53.958Z,18.00
2022-10-17T13:48:26.227Z,27.60
2022-10-17T13:51:03.043Z,36.25
2022-10-17T13:53:42.093Z,30.45
2022-10-17T13:56:30.142Z,30.45
2022-10-17T13:59:18.502Z,31.85
2022-10-17T14:01:45.629Z,30.42
2022-10-17T14:04:19.892Z,29.58
2022-10-17T14:06:52.545Z,22.30
2022-10-17T14:09:25.729Z,24.40
2022-10-17T14:12:13.033Z,18.63
2022-10-17T14:15:09.335Z,11.57
2022-10-17T14:17:38.445Z,9.50
2022-10-17T14:20:26.535Z,11.27
2022-10-17T14:23:21.055Z,6.95
2022-10-17T14:25:41.108Z,11.68
2022-10-17T14:28:09.431Z,8.20
2022-10-17T14:30:55.760Z,9.13
2022-10-17T14:33:29.219Z,11.77
2022-10-17T14:35:59.908Z,10.40
2022-10-17T14:38:28.497Z,9.55
2022-10-17T14:41:30.243Z,11.65
2022-10-17T14:44:04.653Z,20.52
2022-10-17T14:46:31.360Z,11.52
2022-10-17T14:49:24.351Z,13.77
2022-10-17T14:52:15.152Z,7.82
2022-10-17T14:54:49.425Z,11.82
2022-10-17T14:57:26.952Z,9.55
2022-10-17T14:59:56.226Z,10.15
2022-10-17T15:02:24.996Z,8.93
2022-10-17T15:04:52.174Z,12.77
2022-10-17T15:07:20.939Z,13.82
2022-10-17T15:09:51.068Z,9.85
2022-10-17T15:12:20.294Z,10.40
2022-10-17T15:14:51.527Z,8.30
2022-10-17T15:17:30.506Z,10.65
2022-10-17T15:19:57.856Z,11.07
2022-10-17T15:22:24.597Z,12.40
2022-10-17T15:24:51.356Z,10.70
2022-10-17T15:27:19.044Z,9.70
2022-10-17T15:29:46.304Z,12.13
2022-10-17T15:32:13.219Z,13.50
2022-10-17T15:34:39.918Z,8.80
2022-10-17T15:37:14.253Z,9.75
2022-10-17T15:39:40.854Z,10.68
2022-10-17T15:42:11.930Z,8.48
2022-10-17T15:44:38.639Z,9.05
2022-10-17T15:47:06.307Z,11.77
2022-10-17T15:49:34.564Z,9.93
2022-10-17T15:52:01.313Z,16.23
2022-10-17T15:54:27.883Z,16.77
2022-10-17T15:56:55.456Z,20.45
2022-10-17T15:59:29.679Z,17.33
2022-10-17T16:01:56.273Z,15.88
2022-10-17T16:04:24.250Z,16.00
2022-10-17T16:06:50.869Z,18.73
2022-10-17T16:09:17.489Z,18.75
2022-10-17T16:11:45.114Z,24.58
2022-10-17T16:14:16.670Z,77.28
2022-10-17T16:16:43.380Z,30.20
2022-10-17T16:19:10.054Z,21.83
2022-10-17T16:21:40.157Z,15.35
2022-10-17T16:24:09.529Z,17.25
2022-10-17T16:26:36.211Z,27.70
2022-10-17T16:29:04.621Z,27.90
2022-10-17T16:31:34.263Z,15.02
2022-10-17T16:34:02.152Z,19.48
2022-10-17T16:36:29.223Z,17.10
2022-10-17T16:38:56.155Z,16.98
2022-10-17T16:41:25.264Z,18.10
2022-10-17T16:43:54.470Z,14.82
2022-10-17T16:46:22.157Z,11.63
2022-10-17T16:48:49.328Z,13.15
2022-10-17T16:51:18.075Z,15.80
2022-10-17T16:53:50.238Z,17.45
2022-10-17T16:56:21.800Z,15.70
2022-10-17T16:58:49.169Z,21.65
2022-10-17T17:01:21.350Z,11.52
2022-10-17T17:03:48.099Z,25.38
2022-10-17T17:06:20.708Z,17.55
2022-10-17T17:08:47.762Z,18.48
2022-10-17T17:11:16.372Z,11.75
2022-10-17T17:13:43.169Z,13.63
2022-10-17T17:16:17.002Z,13.93
2022-10-17T17:18:45.911Z,12.45
2022-10-17T17:21:13.198Z,14.40
2022-10-17T17:23:41.128Z,13.85
2022-10-17T17:26:15.621Z,12.60
2022-10-17T17:28:42.840Z,19.08
2022-10-17T17:31:15.261Z,13.32
2022-10-17T17:33:43.414Z,17.92
2022-10-17T17:36:13.710Z,14.70
2022-10-17T17:38:41.238Z,14.10
2022-10-17T17:41:08.153Z,14.00
2022-10-17T17:43:35.865Z,17.50
2022-10-17T17:46:02.834Z,16.88
2022-10-17T17:48:30.267Z,13.80
2022-10-17T17:50:56.926Z,14.65
2022-10-17T17:53:23.569Z,24.92
2022-10-17T17:56:05.008Z,17.55
2022-10-17T17:58:32.444Z,26.13
2022-10-17T18:00:59.387Z,19.63
2022-10-17T18:03:26.570Z,21.83
2022-10-17T18:05:53.666Z,17.05
2022-10-17T18:08:20.451Z,19.67
2022-10-17T18:10:54.328Z,22.58
2022-10-17T18:13:20.927Z,28.65
2022-10-17T18:15:48.785Z,25.02
2022-10-17T18:18:15.437Z,20.95
2022-10-17T18:20:42.672Z,28.85
2022-10-17T18:23:10.365Z,34.25
2022-10-17T18:25:37.275Z,28.25
2022-10-17T18:28:04.264Z,40.45
2022-10-17T18:30:33.766Z,28.33
2022-10-17T18:33:01.283Z,30.67
2022-10-17T18:35:28.053Z,31.77
2022-10-17T18:37:56.870Z,31.45
2022-10-17T18:40:23.588Z,20.98
2022-10-17T18:42:50.310Z,30.90
2022-10-17T18:45:17.406Z,20.63
2022-10-17T18:47:47.092Z,22.75
2022-10-17T18:50:14.748Z,11.57
2022-10-17T18:52:41.516Z,13.63
2022-10-17T18:55:08.857Z,20.65
2022-10-17T18:57:35.485Z,15.13
2022-10-17T19:00:02.184Z,16.10
2022-10-17T19:02:28.884Z,20.98
2022-10-17T19:04:55.577Z,19.48
2022-10-17T19:07:22.219Z,19.38
2022-10-17T19:09:49.308Z,26.60
2022-10-17T19:12:16.010Z,35.58
2022-10-17T19:14:42.610Z,36.33
2022-10-17T19:17:09.198Z,34.72
2022-10-17T19:19:36.539Z,29.98
2022-10-17T19:22:03.466Z,32.88
2022-10-17T19:24:30.126Z,21.92
2022-10-17T19:27:02.598Z,17.02
2022-10-17T19:29:31.749Z,19.00
2022-10-17T19:31:58.893Z,19.85
2022-10-17T19:34:25.792Z,19.90
2022-10-17T19:36:52.400Z,14.05
2022-10-17T19:39:20.923Z,22.08
2022-10-17T19:41:48.453Z,13.73
2022-10-17T19:44:15.915Z,17.30
2022-10-17T19:46:46.770Z,13.27
2022-10-17T19:49:13.613Z,17.58
2022-10-17T19:51:40.268Z,15.32
2022-10-17T19:54:07.013Z,15.50
2022-10-17T19:56:37.844Z,17.27
2022-10-17T19:59:06.102Z,20.13
2022-10-17T20:01:36.015Z,15.02
2022-10-17T20:04:02.653Z,16.45
2022-10-17T20:06:29.468Z,12.30
2022-10-17T20:08:56.152Z,15.98
2022-10-17T20:11:27.640Z,20.95
2022-10-17T20:13:55.460Z,11.27
2022-10-17T20:16:31.174Z,16.20
2022-10-17T20:19:02.666Z,15.77
2022-10-17T20:21:32.396Z,15.35
2022-10-17T20:23:59.799Z,16.75
2022-10-17T20:26:43.612Z,13.88
2022-10-17T20:29:19.857Z,12.15
2022-10-17T20:31:47.498Z,13.63
2022-10-17T20:34:16.208Z,11.43
2022-10-17T20:36:43.178Z,13.73
2022-10-17T20:39:12.287Z,13.32
2022-10-17T20:41:39.801Z,11.18
2022-10-17T20:44:07.042Z,14.18
2022-10-17T20:46:39.808Z,15.05
2022-10-17T20:49:14.484Z,11.63
2022-10-17T20:51:41.299Z,18.38
2022-10-17T20:54:08.024Z,16.70
2022-10-17T20:56:35.393Z,11.35
2022-10-17T20:59:04.721Z,15.88
2022-10-17T21:01:32.952Z,14.93
2022-10-17T21:04:10.515Z,15.93
2022-10-17T21:06:42.774Z,12.63
2022-10-17T21:09:09.624Z,13.75
2022-10-17T21:11:36.308Z,12.15
2022-10-17T21:14:06.165Z,18.85
2022-10-17T21:16:34.761Z,11.98
2022-10-17T21:19:01.682Z,12.32
2022-10-17T21:21:33.977Z,11.82
2022-10-17T21:24:03.112Z,15.15
2022-10-17T21:26:32.954Z,15.43
2022-10-17T21:29:04.638Z,12.18
2022-10-17T21:31:36.620Z,16.15
2022-10-17T21:34:11.972Z,12.70
2022-10-17T21:36:39.258Z,13.25
2022-10-17T21:41:38.665Z,14.77
2022-10-17T21:44:08.233Z,12.82
2022-10-17T21:46:34.817Z,21.25
2022-10-17T21:49:01.518Z,15.00
2022-10-17T21:51:28.543Z,14.07
2022-10-17T21:53:57.126Z,15.15
2022-10-17T21:56:28.604Z,15.98
2022-10-17T21:58:55.612Z,15.07
2022-10-17T22:01:25.065Z,16.40
2022-10-17T22:03:54.465Z,16.27
2022-10-17T22:06:40.530Z,17.95
2022-10-17T22:09:13.318Z,18.65
2022-10-17T22:11:40.264Z,23.15
2022-10-17T22:14:11.359Z,21.92
2022-10-17T22:16:38.664Z,17.90
2022-10-17T22:19:07.507Z,21.40
2022-10-17T22:21:36.066Z,15.18
2022-10-17T22:24:07.303Z,19.52
2022-10-17T22:26:35.904Z,22.13
2022-10-17T22:29:04.375Z,20.67
2022-10-17T22:31:31.451Z,19.13
2022-10-17T22:33:58.093Z,19.05
2022-10-17T22:36:24.710Z,21.58
2022-10-17T22:38:51.714Z,21.48
2022-10-17T22:41:18.270Z,22.40
2022-10-17T22:43:44.954Z,23.63
2022-10-17T22:46:14.058Z,22.33
2022-10-17T22:48:40.866Z,20.65
2022-10-17T22:51:08.401Z,20.80
2022-10-17T22:53:37.225Z,22.98
2022-10-17T22:56:06.986Z,25.10
2022-10-17T22:58:35.106Z,23.77
2022-10-17T23:01:02.246Z,24.02
2022-10-17T23:03:30.424Z,20.63
2022-10-17T23:05:57.713Z,27.50
2022-10-17T23:08:25.318Z,23.90
2022-10-17T23:10:51.873Z,23.30
2022-10-17T23:13:19.817Z,23.92
2022-10-17T23:15:49.222Z,24.95
2022-10-17T23:18:15.869Z,23.15
2022-10-17T23:20:42.528Z,24.00
2022-10-17T23:23:09.217Z,27.83
2022-10-17T23:25:35.925Z,29.70
2022-10-17T23:28:02.985Z,30.15
2022-10-17T23:30:31.778Z,29.98
2022-10-17T23:32:58.355Z,26.35
2022-10-17T23:35:24.993Z,33.00
2022-10-17T23:37:51.589Z,32.05
2022-10-17T23:40:18.197Z,30.23
2022-10-17T23:42:45.101Z,31.80
2022-10-17T23:45:12.269Z,28.58
2022-10-17T23:47:38.874Z,27.55
2022-10-17T23:50:06.251Z,26.88
2022-10-17T23:52:33.698Z,31.08
2022-10-17T23:55:00.669Z,32.78
2022-10-17T23:57:27.265Z,30.90
2022-10-17T23:59:53.917Z,30.45
